createdAt,value
2019-01-28T15:00:54.962Z,28.30
2019-01-28T15:03:49.772Z,29.10
2019-01-28T15:06:56.391Z,29.20
2019-01-28T15:09:50.664Z,29.30
2019-01-28T15:12:45.225Z,29.40
2019-01-28T15:15:40.731Z,29.60
2019-01-28T15:18:35.520Z,29.80
2019-01-28T15:21:30.168Z,29.70
2019-01-28T15:24:24.770Z,29.80
2019-01-28T15:27:19.556Z,29.90
2019-01-28T15:30:20.996Z,29.90
2019-01-28T15:33:15.624Z,30.00
2019-01-28T15:36:10.342Z,30.20
2019-01-28T15:39:09.409Z,30.00
2019-01-28T15:42:04.043Z,30.10
2019-01-28T15:44:58.835Z,30.20
2019-01-28T15:47:53.443Z,30.20
2019-01-28T15:50:48.107Z,30.30
2019-01-28T15:53:43.350Z,30.30
2019-01-28T15:56:38.449Z,30.50
2019-01-28T15:59:33.389Z,30.40
2019-01-28T16:02:27.925Z,30.50
2019-01-28T16:05:22.571Z,30.50
2019-01-28T16:08:17.200Z,30.50
2019-01-28T16:11:12.295Z,30.70
2019-01-28T16:14:06.812Z,30.00
2019-01-28T16:17:01.223Z,30.00
2019-01-28T16:19:55.832Z,29.60
2019-01-28T16:22:50.633Z,29.60
2019-01-28T16:25:45.351Z,29.40
2019-01-28T16:28:40.148Z,29.10
2019-01-28T16:31:34.745Z,29.20
2019-01-28T16:34:29.791Z,29.10
2019-01-28T16:37:24.448Z,28.90
2019-01-28T16:40:21.562Z,28.90
2019-01-28T16:43:16.131Z,29.30
2019-01-28T16:46:10.834Z,29.30
2019-01-28T16:49:05.608Z,29.10
2019-01-28T16:52:10.020Z,29.30
2019-01-28T16:55:04.896Z,29.00
2019-01-28T16:58:00.599Z,28.90
2019-01-28T17:00:56.097Z,28.80
2019-01-28T17:03:50.827Z,28.80
2019-01-28T17:06:45.596Z,28.70
2019-01-28T17:09:40.627Z,28.60
2019-01-28T17:12:35.442Z,28.50
2019-01-28T17:15:30.276Z,28.50
2019-01-28T17:18:25.195Z,28.40
2019-01-28T17:21:19.996Z,28.30
2019-01-28T17:24:14.543Z,28.10
2019-01-28T17:27:09.531Z,28.10
2019-01-28T17:30:08.436Z,28.10
2019-01-28T17:33:07.675Z,28.00
2019-01-28T17:36:02.264Z,27.90
2019-01-28T17:38:57.559Z,28.00
2019-01-28T17:41:52.496Z,28.00
2019-01-28T17:44:47.192Z,27.90
2019-01-28T17:47:43.094Z,27.90
2019-01-28T17:50:43.414Z,27.80
2019-01-28T17:53:36.123Z,27.90
2019-01-28T17:56:31.421Z,27.80
2019-01-28T17:59:25.845Z,27.70
2019-01-28T18:02:20.454Z,27.50
2019-01-28T18:05:15.200Z,27.20
2019-01-28T18:08:10.418Z,27.20
2019-01-28T18:11:05.511Z,27.20
2019-01-28T18:13:59.925Z,27.20
2019-01-28T18:16:54.884Z,27.20
2019-01-28T18:19:49.739Z,27.10
2019-01-28T18:22:45.737Z,27.10
2019-01-28T18:25:40.457Z,27.00
2019-01-28T18:28:35.153Z,27.00
2019-01-28T18:31:29.949Z,26.90
2019-01-28T18:34:24.993Z,26.90
2019-01-28T18:37:19.707Z,26.70
2019-01-28T18:40:14.968Z,26.60
2019-01-28T18:43:09.394Z,26.70
2019-01-28T18:46:03.962Z,26.70
2019-01-28T18:48:58.826Z,26.70
2019-01-28T18:51:53.598Z,26.70
2019-01-28T18:54:48.263Z,26.70
2019-01-28T18:57:43.024Z,26.70
2019-01-28T19:00:37.897Z,26.60
2019-01-28T19:03:32.102Z,26.70
2019-01-28T19:06:36.693Z,26.70
2019-01-28T19:09:52.996Z,26.90
2019-01-28T19:13:11.060Z,26.50
2019-01-28T19:16:40.121Z,26.40
2019-01-28T19:19:47.277Z,26.70
2019-01-28T19:22:41.617Z,26.60
2019-01-28T19:25:36.386Z,26.40
2019-01-28T19:28:31.933Z,26.50
2019-01-28T19:31:27.065Z,26.40
2019-01-28T19:34:21.434Z,26.40
2019-01-28T19:37:15.936Z,26.40
2019-01-28T19:40:12.087Z,26.40
2019-01-28T19:43:06.691Z,26.10
2019-01-28T19:46:01.767Z,26.20
2019-01-28T19:48:56.394Z,26.10
2019-01-28T19:51:50.863Z,26.10
2019-01-28T19:54:45.797Z,26.00
2019-01-28T19:57:40.458Z,26.10
2019-01-28T20:00:35.703Z,25.90
2019-01-28T20:03:30.776Z,26.10
2019-01-28T20:06:24.803Z,25.90
2019-01-28T20:09:19.599Z,26.00
2019-01-28T20:12:15.569Z,25.90
2019-01-28T20:15:12.906Z,26.90
2019-01-28T20:18:07.328Z,25.90
2019-01-28T20:21:01.979Z,26.00
2019-01-28T20:23:57.844Z,26.10
2019-01-28T20:26:52.427Z,26.00
2019-01-28T20:29:47.524Z,26.00
2019-01-28T20:32:42.275Z,26.00
2019-01-28T20:35:37.076Z,26.10
2019-01-28T20:38:31.570Z,26.10
2019-01-28T20:41:26.069Z,25.90
2019-01-28T20:44:21.121Z,26.00
2019-01-28T20:47:15.900Z,25.90
2019-01-28T20:50:15.077Z,26.00
2019-01-28T20:53:09.872Z,26.20
2019-01-28T20:56:04.872Z,26.10
2019-01-28T20:58:59.218Z,26.00
2019-01-28T21:01:54.177Z,26.10
2019-01-28T21:04:49.085Z,26.00
2019-01-28T21:07:43.579Z,26.00
2019-01-28T21:10:40.190Z,26.10
